Arabia, OH

12:31 PM EST on January 26, 2015 (GMT -0500)
South Ironton | Change Station
CLOSE
Current Station
Personal Weather Station
Location: Ironton, OH
Elevation: 551 ft
Nearby Weather Stations

Elev 551 ft 38.52 °N, 82.67 °W | Updated 12 minutes ago

Overcast
Overcast
27.3 °F
Feels Like 27 °F
N
1.7
Wind Variable Wind from SE

Today
High -- | Low -- °F
--% Chance of Precip.
Yesterday
High -- | Low -- °F
Precip. -- in
7:41 AM 5:45 PM
Waxing Crescent, 45% visible
Pressure 29.84 in
Visibility 9.0 miles
Clouds Overcast 1100 ft
Windchill 27 °F
Dew Point 23 °F
Humidity 84%
Rainfall 0.09 in
Snow Depth Not available.
UV 1 out of 12
Pollen .10 out of 12
Air Quality Not available.
Flu Activity Not available.
METAR KHTS 261651Z 28008G15KT 9SM UP OVC011 M03/M05 A2982 RMK AO2 UPB27SNE27 SLP105 P0000 T10331050

More Conditions Fewer Conditions

Pressure 29.84 in
Visibility 9.0 miles
Clouds Overcast 1100 ft
Windchill 27 °F
Dew Point 23 °F
Humidity 84%
Rainfall 0.09 in
Snow Depth Not available.
UV 1 out of 12
Pollen .10 out of 12
Air Quality Not available.
Flu Activity Not available.
METAR KHTS 261651Z 28008G15KT 9SM UP OVC011 M03/M05 A2982 RMK AO2 UPB27SNE27 SLP105 P0000 T10331050

More Conditions Fewer Conditions

10-Day Weather Forecast

Almanac

Astronomy

Jan. 26, 2015 Rise Set
Actual Time
Civil Twilight
Nautical Twilight
Astronomical Twilight
Moon
Length of Visible Light
Length of Day
Tomorrow will be .
, % of the Moon is Illuminated

Today's Extremes

State Highs State Lows

Community

WunderPhotos

Upload Photos

1,790,299 photos uploaded!

WunderBlogs® & News

Nearby

Air Quality

  Air Quality AQ Index Pollutant
Not available.

Snow Depth

Station Depth Elevation

Earthquake Activity

City Distance Mag. Time & Date
Minimum magnitude displayed is 2.5.

Coastal Water Temperatures

Place Temperature

Nearby Weather Stations